Latest Weather Observations for Birdsville

IDQ60801

Issued at 4:02 pm EST Wednesday 22 February 2017 (issued every 30 minutes, with the page automatically refreshed every 10 minutes)

About weather observations | Map of weather stations | Latest weather observations for QLD | Other Formats
Station Details ID: 038026 Name: BIRDSVILLE AIRPORT Lat: -25.90 Lon: 139.35 Height: 46.6 m
Data from the previous 72 hours. | See also: Recent months at Birdsville
Date/Time
EST
Temp
°C
App
Temp
°C
Dew
Point
°C
Rel
Hum
%
Delta-T
°C
Wind Press
QNH
hPa
Press
MSL
hPa
Rain since
9am
mm
Dir  Spd
km/h
Gust
km/h
Spd
kts
Gust
kts
22/03:30pm 39.5 36.2 4.8 12 19.0 NNE 11 19 6 10 1008.8 1008.5 0.0
22/03:00pm 39.0 35.7 4.4 12 18.8 ESE 11 19 6 10 1009.1 1008.8 0.0
22/02:30pm 39.5 35.1 4.8 12 19.0 NNE 17 28 9 15 1009.5 1009.2 0.0
22/02:00pm 38.9 35.4 5.5 13 18.4 NNE 13 26 7 14 1010.0 1009.7 0.0
22/01:30pm 38.0 34.2 5.9 14 17.7 NNE 15 26 8 14 1010.3 1010.0 0.0
22/01:00pm 38.2 34.4 6.0 14 17.8 NNW 15 22 8 12 1010.6 1010.3 0.0
22/12:30pm 38.1 34.5 4.9 13 18.1 N 13 26 7 14 1011.0 1010.7 0.0
22/12:00pm 37.1 32.4 6.2 15 17.1 N 20 32 11 17 1011.5 1011.2 0.0
22/11:30am 36.5 32.2 9.2 19 15.7 N 22 35 12 19 1011.8 1011.5 0.0
22/11:00am 35.9 31.1 8.7 19 15.5 N 24 33 13 18 1012.1 1011.8 0.0
22/10:30am 35.2 30.8 8.9 20 15.0 N 22 30 12 16 1012.4 1012.1 0.0
22/10:00am 33.5 28.4 5.9 18 14.9 NNE 22 28 12 15 1012.5 1012.2 0.0
22/09:30am 31.4 26.3 4.2 18 14.1 NNE 20 24 11 13 1012.4 1012.1 0.0
22/09:00am 29.4 23.4 1.0 16 13.8 NE 22 28 12 15 1012.5 1012.2 0.0
22/08:30am 27.3 22.5 0.1 17 12.8 ENE 15 19 8 10 1012.4 1012.1 0.0
22/08:00am 24.9 21.7 -0.3 19 11.5 ESE 6 9 3 5 1012.5 1012.2 0.0
22/07:30am 22.3 20.2 -1.1 21 10.3 CALM 0 0 0 0 1012.3 1012.0 0.0
22/07:00am 20.5 17.0 -1.3 23 9.4 S 7 9 4 5 1011.8 1011.5 0.0
22/06:30am 19.8 16.2 -1.9 23 9.2 S 7 9 4 5 1011.6 1011.3 0.0
22/06:00am 19.8 16.2 -1.9 23 9.2 SSW 7 9 4 5 1011.2 1010.9 0.0
22/05:30am 20.4 16.9 -1.4 23 9.4 S 7 9 4 5 1010.8 1010.5 0.0
22/05:00am 21.6 18.2 -0.4 23 9.8 SSE 7 9 4 5 1010.6 1010.3 0.0
22/04:30am 21.3 17.9 -0.6 23 9.7 SE 7 9 4 5 1010.3 1010.0 0.0
22/04:00am 21.9 18.5 -0.8 22 10.1 SE 7 9 4 5 1010.2 1009.9 0.0
22/03:30am 22.0 18.2 -0.7 22 10.1 ESE 9 11 5 6 1010.2 1009.9 0.0
22/03:00am 22.2 18.7 -1.1 21 10.3 SSE 7 9 4 5 1010.3 1010.0 0.0
22/02:30am 22.6 19.0 -2.2 19 10.7 SSE 7 9 4 5 1010.5 1010.2 0.0
22/02:00am 23.0 19.3 -2.6 18 11.1 S 7 9 4 5 1010.9 1010.6 0.0
22/01:30am 24.0 20.3 -2.5 17 11.6 SSW 7 9 4 5 1011.1 1010.8 0.0
22/01:00am 24.7 21.3 -2.0 17 11.8 S 6 7 3 4 1011.4 1011.1 0.0
22/12:30am 25.1 21.6 -2.5 16 12.2 S 6 7 3 4 1011.6 1011.3 0.0
22/12:00am 25.7 22.1 -2.0 16 12.4 S 7 9 4 5 1011.7 1011.4 0.0
 
Date/Time
EST
Temp
°C
App
Temp
°C
Dew
Point
°C
Rel
Hum
%
Delta-T
°C
Wind Press
QNH
hPa
Press
MSL
hPa
Rain since
9am
mm
Dir  Spd
km/h
Gust
km/h
Spd
kts
Gust
kts
21/11:30pm 25.3 22.1 -3.2 15 12.4 SE 4 7 2 4 1011.7 1011.4 0.0
21/11:00pm 26.6 22.6 -2.1 15 12.9 SSE 9 11 5 6 1011.8 1011.5 0.0
21/10:30pm 27.8 23.1 -2.1 14 13.6 SSE 13 15 7 8 1012.0 1011.7 0.0
21/10:00pm 29.2 24.5 -2.0 13 14.3 SSE 13 17 7 9 1012.0 1011.7 0.0
21/09:30pm 29.3 25.0 -1.9 13 14.4 S 11 13 6 7 1011.7 1011.4 0.0
21/09:00pm 30.0 25.6 -2.5 12 14.9 S 11 11 6 6 1011.4 1011.1 0.0
21/08:30pm 31.1 27.0 -2.8 11 15.6 SSE 9 11 5 6 1011.2 1010.9 0.0
21/08:00pm 32.6 28.1 -2.9 10 16.5 S 11 13 6 7 1010.9 1010.6 0.0
21/07:30pm 34.1 29.4 -1.8 10 17.1 SSE 13 19 7 10 1010.7 1010.4 0.0
21/07:00pm 35.2 30.4 -2.4 9 17.9 SSE 13 20 7 11 1010.4 1010.1 0.0
21/06:30pm 35.9 30.8 -1.9 9 18.2 SSE 15 22 8 12 1010.2 1009.9 0.0
21/06:00pm 36.1 31.2 -3.3 8 18.6 SSE 13 20 7 11 1010.2 1009.9 0.0
21/05:30pm 36.4 31.7 -1.5 9 18.5 SE 13 19 7 10 1010.2 1009.9 0.0
21/05:00pm 36.5 32.4 -3.0 8 18.8 S 9 19 5 10 1010.3 1010.0 0.0
21/04:30pm 36.1 31.6 -3.3 8 18.6 SSE 11 20 6 11 1010.4 1010.1 0.0
21/04:00pm 36.5 32.2 -1.4 9 18.5 SE 11 22 6 12 1010.7 1010.4 0.0
21/03:30pm 36.8 32.9 -1.2 9 18.7 W 9 19 5 10 1010.9 1010.6 0.0
21/03:00pm 35.4 30.3 -2.3 9 18.0 ENE 15 20 8 11 1011.4 1011.1 0.0
21/02:30pm 36.1 31.8 -1.7 9 18.3 ESE 11 24 6 13 1011.9 1011.6 0.0
21/02:00pm 35.3 31.1 -0.9 10 17.7 ESE 11 24 6 13 1012.4 1012.1 0.0
21/01:30pm 34.7 30.8 -1.4 10 17.4 NNE 9 19 5 10 1012.8 1012.5 0.0
21/01:00pm 34.6 30.3 -1.4 10 17.4 SE 11 24 6 13 1013.3 1013.0 0.0
21/12:30pm 34.4 29.7 -1.6 10 17.3 E 13 22 7 12 1013.6 1013.3 0.0
21/12:00pm 34.3 29.0 -0.4 11 17.0 ESE 17 26 9 14 1014.1 1013.8 0.0
21/11:30am 32.9 27.3 0.9 13 15.8 E 20 28 11 15 1014.5 1014.2 0.0
21/11:00am 32.2 26.6 1.3 14 15.3 ESE 20 32 11 17 1014.9 1014.6 0.0
21/10:30am 31.8 26.1 2.9 16 14.7 ESE 22 30 12 16 1015.2 1014.9 0.0
21/10:00am 31.0 24.7 3.9 18 13.9 ESE 26 33 14 18 1015.5 1015.2 0.0
21/09:30am 29.1 23.1 3.1 19 13.0 ESE 24 33 13 18 1015.7 1015.4 0.0
21/09:00am 27.7 21.3 3.4 21 12.1 ESE 26 35 14 19 1015.7 1015.4 0.0
21/08:30am 25.2 20.5 3.2 24 10.8 ESE 17 24 9 13 1015.5 1015.2 0.0
21/08:00am 22.8 18.5 3.4 28 9.4 SE 15 20 8 11 1015.1 1014.8 0.0
21/07:30am 20.1 16.4 2.5 31 8.2 SSE 11 17 6 9 1015.0 1014.7 0.0
21/07:00am 19.1 15.4 2.5 33 7.7 SSE 11 13 6 7 1014.7 1014.4 0.0
21/06:30am 18.7 15.0 2.5 34 7.5 SSE 11 13 6 7 1014.3 1014.0 0.0
21/06:00am 19.5 15.9 2.8 33 7.8 SE 11 15 6 8 1014.0 1013.7 0.0
21/05:30am 20.0 16.1 3.3 33 7.9 SE 13 15 7 8 1013.7 1013.4 0.0
21/05:00am 20.3 16.3 3.1 32 8.1 SE 13 17 7 9 1013.6 1013.3 0.0
21/04:30am 20.4 16.0 2.7 31 8.3 SSE 15 17 8 9 1013.5 1013.2 0.0
21/04:00am 20.8 16.3 2.1 29 8.7 SSE 15 17 8 9 1013.3 1013.0 0.0
21/03:30am 21.3 17.2 2.1 28 9.0 SSE 13 15 7 8 1013.2 1012.9 0.0
21/03:00am 21.9 17.3 1.6 26 9.4 SSE 15 20 8 11 1013.1 1012.8 0.0
21/02:30am 22.4 17.9 2.0 26 9.6 SSE 15 19 8 10 1013.0 1012.7 0.0
21/02:00am 22.6 17.5 1.0 24 10.0 SSE 17 20 9 11 1013.0 1012.7 0.0
21/01:30am 22.2 17.0 0.1 23 10.0 SSE 17 20 9 11 1012.9 1012.6 0.0
21/01:00am 22.6 17.7 -0.2 22 10.3 S 15 19 8 10 1013.0 1012.7 0.0
21/12:30am 23.0 18.1 -0.5 21 10.6 S 15 19 8 10 1013.3 1013.0 0.0
21/12:00am 23.6 19.1 0.0 21 10.8 SSE 13 17 7 9 1013.6 1013.3 0.0
 
Date/Time
EST
Temp
°C
App
Temp
°C
Dew
Point
°C
Rel
Hum
%
Delta-T
°C
Wind Press
QNH
hPa
Press
MSL
hPa
Rain since
9am
mm
Dir  Spd
km/h
Gust
km/h
Spd
kts
Gust
kts
20/11:30pm 24.1 19.6 -0.2 20 11.1 SSE 13 17 7 9 1013.7 1013.4 0.0
20/11:00pm 24.5 20.0 -0.6 19 11.4 SSE 13 15 7 8 1013.6 1013.3 0.0
20/10:30pm 25.7 21.2 -0.4 18 12.0 S 13 19 7 10 1013.8 1013.5 0.0
20/10:00pm 26.4 21.1 -0.6 17 12.4 S 17 20 9 11 1013.5 1013.2 0.0
20/09:30pm 27.1 22.3 0.0 17 12.7 S 15 19 8 10 1013.3 1013.0 0.0
20/09:00pm 27.5 22.7 0.3 17 12.8 S 15 17 8 9 1013.3 1013.0 0.0
20/08:30pm 27.9 23.4 -0.2 16 13.2 S 13 15 7 8 1013.0 1012.7 0.0
20/08:00pm 29.1 24.6 -0.1 15 13.9 SSE 13 15 7 8 1012.9 1012.6 0.0
20/07:30pm 30.3 25.1 -0.1 14 14.5 SSE 17 20 9 11 1012.3 1012.0 0.0
20/07:00pm 31.1 25.8 -0.5 13 15.1 SSE 17 24 9 13 1012.0 1011.7 0.0
20/06:30pm 31.7 25.4 -1.2 12 15.6 SSE 22 32 12 17 1011.6 1011.3 0.0
20/06:00pm 32.1 25.8 -0.9 12 15.8 SE 22 30 12 16 1011.4 1011.1 0.0
20/05:30pm 32.1 26.2 -0.9 12 15.8 SSE 20 32 11 17 1011.3 1011.0 0.0
20/05:00pm 31.9 25.4 -2.2 11 15.9 SE 22 35 12 19 1011.4 1011.1 0.0
20/04:30pm 31.9 26.4 -2.2 11 15.9 SSE 17 24 9 13 1011.4 1011.1 0.0
20/04:00pm 33.0 27.0 -1.4 11 16.4 S 20 28 11 15 1011.4 1011.1 0.0
20/03:30pm 31.6 25.7 -2.4 11 15.8 SE 19 28 10 15 1011.4 1011.1 0.0
20/03:00pm 31.7 25.7 -1.2 12 15.6 SE 20 32 11 17 1011.6 1011.3 0.0
20/02:30pm 30.7 26.1 -0.8 13 14.9 SSE 13 33 7 18 1012.3 1012.0 0.0
20/02:00pm 31.3 25.6 -0.4 13 15.2 SSE 19 41 10 22 1012.6 1012.3 0.0
20/01:30pm 30.6 25.4 0.1 14 14.7 S 17 30 9 16 1012.9 1012.6 0.0
20/01:00pm 29.9 24.4 0.5 15 14.2 SE 19 28 10 15 1013.5 1013.2 0.0
20/12:30pm 29.9 24.5 1.4 16 14.0 SSE 19 30 10 16 1013.9 1013.6 0.0
20/12:00pm 28.8 23.2 1.3 17 13.3 SSE 20 30 11 16 1014.4 1014.1 0.0
20/11:30am 27.8 22.1 0.5 17 13.0 SE 20 30 11 16 1014.7 1014.4 0.0
20/11:00am 27.7 22.2 2.0 19 12.5 SE 20 32 11 17 1014.9 1014.6 0.0
20/10:30am 26.7 21.1 1.2 19 12.2 SE 20 28 11 15 1015.2 1014.9 0.0
20/10:00am 26.3 21.1 2.3 21 11.6 SE 19 28 10 15 1015.6 1015.3 0.0
20/09:30am 24.5 19.0 2.0 23 10.7 SE 20 26 11 14 1015.7 1015.4 0.0
20/09:00am 23.2 18.3 2.1 25 10.0 SSE 17 20 9 11 1015.6 1015.3 0.0
20/08:30am 21.2 17.4 2.0 28 8.9 SSE 11 15 6 8 1015.6 1015.3 0.0
20/08:00am 19.1 15.6 1.1 30 8.1 SSW 9 11 5 6 1015.3 1015.0 0.0
20/07:30am 17.4 13.4 0.6 32 7.4 SSW 11 13 6 7 1014.9 1014.6 0.0
20/07:00am 15.9 11.8 -0.3 33 6.9 SW 11 13 6 7 1014.6 1014.3 0.0
20/06:30am 15.3 11.1 -0.9 33 6.7 SSW 11 15 6 8 1014.2 1013.9 0.0
20/06:00am 16.6 11.8 0.3 33 7.0 SSW 15 17 8 9 1013.7 1013.4 0.0
20/05:30am 16.7 12.2 -0.1 32 7.2 S 13 19 7 10 1013.5 1013.2 0.0
20/05:00am 16.7 13.9 -0.1 32 7.2 S 4 6 2 3 1013.4 1013.1 0.0
20/04:30am 17.4 14.7 0.6 32 7.4 SSE 4 6 2 3 1013.3 1013.0 0.0
20/04:00am 17.8 14.8 0.5 31 7.6 SSE 6 7 3 4 1013.1 1012.8 0.0
20/03:30am 18.8 15.2 0.9 30 8.0 SSE 9 11 5 6 1013.1 1012.8 0.0
20/03:00am 19.0 15.5 1.1 30 8.0 SSE 9 11 5 6 1013.0 1012.7 0.0
20/02:30am 19.7 15.8 1.2 29 8.4 SSE 11 15 6 8 1013.0 1012.7 0.0
20/02:00am 20.1 15.9 1.5 29 8.5 S 13 17 7 9 1013.1 1012.8 0.0
20/01:30am 21.0 16.1 1.8 28 8.9 S 17 20 9 11 1013.4 1013.1 0.0
20/01:00am 21.6 17.1 2.3 28 9.1 S 15 19 8 10 1013.8 1013.5 0.0
20/12:30am 21.7 16.8 1.9 27 9.2 SSW 17 20 9 11 1014.0 1013.7 0.0
20/12:00am 22.2 16.8 1.3 25 9.7 SSW 19 20 10 11 1014.0 1013.7 0.0
 
Date/Time
EST
Temp
°C
App
Temp
°C
Dew
Point
°C
Rel
Hum
%
Delta-T
°C
Wind Press
QNH
hPa
Press
MSL
hPa
Rain since
9am
mm
Dir  Spd
km/h
Gust
km/h
Spd
kts
Gust
kts
19/11:30pm 23.0 17.6 1.4 24 10.1 SSW 19 24 10 13 1014.1 1013.8 0.0
19/11:00pm 23.5 17.6 1.8 24 10.2 SSW 22 28 12 15 1013.9 1013.6 0.0
19/10:30pm 24.1 18.2 1.7 23 10.6 SSW 22 28 12 15 1013.8 1013.5 0.0
19/10:00pm 24.9 19.1 2.4 23 10.8 SSW 22 30 12 16 1013.7 1013.4 0.0
19/09:30pm 25.4 19.5 1.5 21 11.4 SSW 22 30 12 16 1013.4 1013.1 0.0
19/09:00pm 25.9 21.0 1.9 21 11.5 S 17 20 9 11 1013.0 1012.7 0.0
19/08:30pm 26.5 21.0 1.7 20 11.9 SSW 20 26 11 14 1012.7 1012.4 0.0
19/08:00pm 27.2 21.4 2.3 20 12.2 S 22 28 12 15 1012.5 1012.2 0.0
19/07:30pm 27.9 22.2 2.9 20 12.4 SSW 22 30 12 16 1012.2 1011.9 0.0
19/07:00pm 28.6 22.4 2.0 18 13.1 S 24 32 13 17 1012.1 1011.8 0.0
19/06:30pm 29.1 22.9 2.4 18 13.2 SSW 24 35 13 19 1011.7 1011.4 0.0
19/06:00pm 29.6 23.1 2.8 18 13.4 S 26 39 14 21 1011.4 1011.1 0.0
19/05:30pm 29.9 22.6 2.2 17 13.8 SSW 30 43 16 23 1011.0 1010.7 0.0
19/05:00pm 30.2 24.1 2.5 17 13.9 SSW 24 33 13 18 1010.8 1010.5 0.0
19/04:30pm 29.9 22.9 2.2 17 13.8 SSW 28 43 15 23 1010.7 1010.4 0.0

Other Formats:

Comma delimited format used in spreadsheet applications
http://www.bom.gov.au/fwo/IDQ60801/IDQ60801.95482.axf

JavaScript Object Notation format (JSON) in row-major order
http://www.bom.gov.au/fwo/IDQ60801/IDQ60801.95482.json